Time;durP1;ratioP1;P1;durP2;ratioP2;P2;SDS_P1;SDS_P2;PMS_P1;PMS_P2;Temp;Humidity;BMP_temperature;BMP_pressure;BME280_temperature;BME280_humidity;BME280_pressure;Samples;Min_cycle;Max_cycle;Signal;HPM_P1;HPM_P2
2022/01/27 00:05:47;;;;;;;46.43;21.47;;;;;;;1.47;74.61;101732.00;5051205;28;20162;-82
2022/01/27 00:08:17;;;;;;;46.20;20.97;;;;;;;1.39;74.88;101714.81;5051429;28;20574;-82
2022/01/27 00:13:14;;;;;;;47.87;21.20;;;;;;;1.37;75.48;101726.28;5051304;28;20218;-81
2022/01/27 00:15:44;;;;;;;44.30;20.17;;;;;;;0.84;75.91;101647.22;5051101;28;20640;-81
2022/01/27 00:18:17;;;;;;;46.73;21.37;;;;;;;1.07;75.98;101680.81;5055492;28;20615;-80
2022/01/27 00:20:45;;;;;;;45.00;22.07;;;;;;;1.29;76.42;101731.88;5055398;28;20163;-81
2022/01/27 00:23:11;;;;;;;51.17;21.87;;;;;;;1.39;76.38;101735.94;5055065;28;20616;-80
2022/01/27 00:25:37;;;;;;;42.93;20.70;;;;;;;1.39;76.29;101723.28;5055122;28;20238;-81
2022/01/27 00:28:05;;;;;;;41.33;18.40;;;;;;;1.51;75.64;101725.75;5055028;28;20704;-79
2022/01/27 00:30:32;;;;;;;40.03;19.33;;;;;;;1.49;75.47;101732.19;5054960;28;20186;-80
2022/01/27 00:32:57;;;;;;;40.97;19.90;;;;;;;1.21;75.37;101671.78;5055052;28;20732;-81
2022/01/27 00:35:23;;;;;;;44.57;21.43;;;;;;;1.59;75.70;101727.78;5054745;28;20187;-80
2022/01/27 00:37:48;;;;;;;40.43;20.73;;;;;;;1.60;74.95;101706.88;5055052;28;20176;-83
2022/01/27 00:40:14;;;;;;;38.50;20.00;;;;;;;1.18;74.86;101633.47;5055138;28;20175;-81
2022/01/27 00:42:40;;;;;;;40.90;19.43;;;;;;;1.78;74.07;101716.16;5054130;28;20176;-81
2022/01/27 00:45:06;;;;;;;40.97;20.13;;;;;;;1.51;74.10;101661.00;5055465;28;20577;-83
2022/01/27 00:47:31;;;;;;;45.63;20.93;;;;;;;1.85;73.80;101714.69;5055316;28;20608;-82
2022/01/27 00:49:57;;;;;;;45.07;20.37;;;;;;;1.77;73.81;101711.78;5055160;28;20245;-81
2022/01/27 00:52:30;;;;;;;39.60;19.80;;;;;;;1.59;73.42;101665.53;5055152;28;20171;-83
2022/01/27 00:54:56;;;;;;;41.60;18.37;;;;;;;1.54;73.31;101663.97;5055020;28;20194;-83
2022/01/27 01:00:08;;;;;;;41.77;19.83;;;;;;;1.72;73.81;101713.66;5055258;28;20690;-81
2022/01/27 01:16:08;;;;;;;43.57;20.70;;;;;;;1.61;74.12;101704.53;5054396;28;20196;-82
2022/01/27 01:34:29;;;;;;;43.13;19.77;;;;;;;1.63;74.89;101706.41;5054323;28;20163;-83
2022/01/27 01:36:57;;;;;;;41.47;20.33;;;;;;;1.57;75.11;101707.34;5054115;28;20199;-82
2022/01/27 01:39:25;;;;;;;39.67;18.93;;;;;;;1.42;75.80;101710.19;5052881;28;20183;-81
2022/01/27 01:41:53;;;;;;;46.87;19.87;;;;;;;1.43;75.78;101717.06;5054472;28;20228;-81
2022/01/27 01:44:19;;;;;;;37.03;18.83;;;;;;;1.43;75.88;101714.53;5053273;28;20175;-82
2022/01/27 01:46:45;;;;;;;41.83;20.40;;;;;;;1.23;75.91;101672.91;5055395;28;20253;-80
2022/01/27 01:49:11;;;;;;;48.03;20.50;;;;;;;1.39;76.04;101710.66;5057625;28;20188;-80
2022/01/27 01:51:38;;;;;;;40.53;19.73;;;;;;;1.39;76.09;101698.03;5055375;28;20252;-81
2022/01/27 01:54:05;;;;;;;45.70;20.63;;;;;;;1.43;75.94;101695.97;5061114;28;20167;-80
2022/01/27 01:56:32;;;;;;;47.77;21.53;;;;;;;1.39;76.49;101702.19;5073198;28;20206;-82
2022/01/27 01:58:58;;;;;;;46.63;20.40;;;;;;;1.06;76.92;101658.81;5078852;28;20171;-80
2022/01/27 02:01:23;;;;;;;49.13;22.53;;;;;;;1.41;76.58;101703.34;5078608;28;20167;-81
2022/01/27 02:03:50;;;;;;;46.37;20.90;;;;;;;1.45;76.11;101712.25;5080051;28;20227;-81
2022/01/27 02:06:24;;;;;;;42.60;20.07;;;;;;;1.31;76.34;101690.09;5080180;28;20183;-80
2022/01/27 02:09:28;;;;;;;45.50;21.13;;;;;;;1.38;76.04;101701.28;5080208;28;20164;-80
2022/01/27 02:19:57;;;;;;;43.27;20.73;;;;;;;1.48;75.42;101680.78;5079400;28;20208;-80
2022/01/27 02:22:23;;;;;;;44.20;20.10;;;;;;;1.52;75.50;101692.22;5078781;28;20183;-80
2022/01/27 02:24:50;;;;;;;44.00;20.53;;;;;;;1.02;75.83;101593.41;5078315;28;20190;-82
2022/01/27 02:27:17;;;;;;;46.77;20.33;;;;;;;1.46;75.94;101692.25;5073592;28;20176;-81
2022/01/27 02:29:44;;;;;;;48.40;21.73;;;;;;;1.49;76.07;101697.75;5058669;28;20209;-81
2022/01/27 02:32:11;;;;;;;46.70;20.73;;;;;;;1.52;75.99;101690.59;5056053;28;20183;-84
2022/01/27 02:34:36;;;;;;;43.57;20.53;;;;;;;1.55;76.07;101693.56;5056320;28;20190;-81
2022/01/27 02:37:02;;;;;;;52.53;23.10;;;;;;;1.45;76.12;101674.38;5058435;28;20660;-82
2022/01/27 02:39:27;;;;;;;38.30;20.03;;;;;;;1.54;75.86;101701.84;5055747;28;20171;-82
2022/01/27 02:42:05;;;;;;;49.47;21.20;;;;;;;1.49;76.47;101705.31;5052588;28;20206;-83
2022/01/27 02:44:33;;;;;;;49.83;22.07;;;;;;;1.34;76.84;101703.13;5053052;28;20257;-82
2022/01/27 02:46:59;;;;;;;47.17;21.67;;;;;;;0.70;76.87;101573.66;5053047;28;20191;-81
2022/01/27 02:49:25;;;;;;;44.10;22.07;;;;;;;0.72;77.35;101597.53;5052652;28;20199;-82
2022/01/27 02:51:51;;;;;;;51.37;23.77;;;;;;;1.31;77.57;101705.25;5052434;28;20209;-81
2022/01/27 02:54:17;;;;;;;49.27;22.13;;;;;;;1.36;77.54;101702.66;5052525;28;20183;-81
2022/01/27 02:56:47;;;;;;;49.93;22.87;;;;;;;1.06;77.78;101667.94;5052634;28;20199;-83
2022/01/27 02:59:16;;;;;;;46.53;22.37;;;;;;;1.19;78.23;101693.38;5052477;28;20658;-82
2022/01/27 03:01:46;;;;;;;50.53;22.27;;;;;;;1.29;78.47;101709.16;5052429;28;20611;-82
2022/01/27 03:04:12;;;;;;;55.73;23.50;;;;;;;1.32;78.44;101712.13;5052691;28;20577;-83
2022/01/27 03:06:38;;;;;;;54.63;23.93;;;;;;;1.06;78.42;101657.84;5052226;28;20171;-82
2022/01/27 03:09:03;;;;;;;46.07;23.97;;;;;;;1.32;78.44;101697.88;5050719;28;20179;-83
2022/01/27 03:11:55;;;;;;;53.03;23.13;;;;;;;1.14;78.66;101686.03;5052275;28;20233;-82
2022/01/27 03:14:22;;;;;;;53.43;23.73;;;;;;;1.29;79.28;101706.63;5051483;28;20284;-82
2022/01/27 03:16:52;;;;;;;57.00;25.60;;;;;;;0.79;79.37;101634.63;5051724;28;20253;-83
2022/01/27 03:19:18;;;;;;;56.73;25.40;;;;;;;1.02;80.09;101676.69;5051867;28;20655;-81
2022/01/27 03:21:45;;;;;;;53.27;23.50;;;;;;;1.26;80.31;101713.75;5051792;28;20195;-81
2022/01/27 03:24:10;;;;;;;55.03;24.30;;;;;;;1.12;79.98;101702.59;5051880;28;20179;-81
2022/01/27 03:26:36;;;;;;;54.43;23.23;;;;;;;1.25;79.79;101706.88;5051601;28;20692;-83
2022/01/27 03:29:02;;;;;;;52.73;23.80;;;;;;;0.99;80.83;101693.94;5051759;28;20168;-82
2022/01/27 03:31:27;;;;;;;59.10;24.83;;;;;;;1.06;81.15;101719.38;5051823;28;20174;-82
2022/01/27 03:33:54;;;;;;;57.33;25.30;;;;;;;1.08;81.23;101712.91;5059238;28;20171;-82
2022/01/27 03:36:20;;;;;;;55.07;23.90;;;;;;;0.63;81.89;101670.25;5057615;28;20199;-80
2022/01/27 03:38:46;;;;;;;51.70;24.07;;;;;;;0.95;82.52;101721.03;5054190;28;20567;-82
2022/01/27 03:41:18;;;;;;;49.63;23.40;;;;;;;0.33;82.86;101597.69;5059083;28;20180;-80
2022/01/27 03:43:44;;;;;;;57.40;25.17;;;;;;;0.91;82.68;101712.09;5060181;28;20202;-80
2022/01/27 03:46:10;;;;;;;52.30;23.53;;;;;;;0.08;83.20;101565.50;5060630;28;20179;-81
2022/01/27 03:48:35;;;;;;;53.80;24.30;;;;;;;0.81;84.05;101717.44;5055747;28;20187;-81
2022/01/27 03:51:01;;;;;;;58.83;24.47;;;;;;;0.80;84.45;101713.06;5051634;28;20179;-83
2022/01/27 03:53:27;;;;;;;58.70;24.73;;;;;;;0.77;84.69;101711.69;5054539;28;20182;-82
2022/01/27 03:55:52;;;;;;;50.57;24.07;;;;;;;0.48;84.45;101665.50;5057751;28;20250;-79
2022/01/27 03:58:18;;;;;;;49.63;23.93;;;;;;;0.80;84.53;101714.66;5064953;28;20182;-79
2022/01/27 04:00:43;;;;;;;51.83;23.43;;;;;;;0.78;85.19;101711.00;5061589;28;20192;-81
2022/01/27 04:03:11;;;;;;;54.27;23.90;;;;;;;0.66;84.70;101684.91;5057453;28;20179;-81
2022/01/27 04:05:49;;;;;;;52.13;22.93;;;;;;;0.84;84.77;101709.38;5054204;28;20175;-82
2022/01/27 04:08:15;;;;;;;52.67;23.77;;;;;;;0.65;84.47;101685.59;5051256;28;20256;-82
2022/01/27 04:10:40;;;;;;;55.20;24.17;;;;;;;0.84;84.37;101717.88;5052231;28;20206;-83
2022/01/27 04:13:07;;;;;;;49.10;24.87;;;;;;;0.86;84.31;101721.50;5052256;28;20419;-82
2022/01/27 04:15:37;;;;;;;51.20;23.30;;;;;;;0.32;83.50;101608.50;5051071;28;20689;-81
2022/01/27 04:18:04;;;;;;;58.23;25.83;;;;;;;0.85;83.35;101703.66;5051938;28;20179;-81
2022/01/27 04:20:30;;;;;;;57.23;24.30;;;;;;;0.97;82.56;101700.38;5051993;28;20195;-81
2022/01/27 04:22:55;;;;;;;57.10;25.07;;;;;;;0.89;81.65;101685.72;5052103;28;20225;-82
2022/01/27 04:25:22;;;;;;;57.50;26.13;;;;;;;1.10;81.05;101719.13;5051094;28;20245;-80
2022/01/27 04:27:52;;;;;;;57.63;27.50;;;;;;;0.98;80.50;101697.16;5051415;28;20736;-82
2022/01/27 04:30:18;;;;;;;55.07;26.33;;;;;;;0.45;80.66;101600.38;5048170;28;20206;-80
2022/01/27 04:32:58;;;;;;;56.57;25.70;;;;;;;0.80;80.98;101670.16;5031842;28;20187;-81
2022/01/27 04:35:27;;;;;;;56.40;25.73;;;;;;;0.83;81.76;101692.41;5032654;28;20267;-79
2022/01/27 04:43:22;;;;;;;54.70;26.10;;;;;;;0.39;85.07;101696.91;5032260;28;20737;-82
2022/01/27 04:48:23;;;;;;;59.87;28.07;;;;;;;0.77;82.68;101714.22;5033984;28;20222;-81
2022/01/27 04:50:51;;;;;;;69.37;31.13;;;;;;;0.75;82.79;101708.97;5031971;28;20191;-79
2022/01/27 04:53:26;;;;;;;61.43;26.67;;;;;;;0.62;82.22;101675.06;5033327;28;20211;-81
2022/01/27 04:55:54;;;;;;;65.63;29.80;;;;;;;1.00;82.08;101723.53;5033723;28;20214;-83
2022/01/27 04:58:28;;;;;;;62.57;27.60;;;;;;;1.11;81.08;101713.38;5031407;28;20191;-81
2022/01/27 05:00:56;;;;;;;58.50;26.93;;;;;;;1.02;80.01;101704.47;5031915;28;20169;-78
2022/01/27 05:03:33;;;;;;;59.70;27.60;;;;;;;1.11;80.26;101725.97;5033983;28;20168;-81
2022/01/27 05:06:00;;;;;;;60.70;27.87;;;;;;;1.12;79.58;101731.94;5034055;28;20250;-82
2022/01/27 05:08:25;;;;;;;61.00;26.77;;;;;;;1.09;80.01;101714.78;5035326;28;20168;-79
2022/01/27 05:11:02;;;;;;;61.47;26.77;;;;;;;0.86;80.90;101690.31;5034418;28;20543;-81
2022/01/27 05:13:36;;;;;;;59.00;25.47;;;;;;;0.83;80.90;101679.78;5033997;28;20234;-82
2022/01/27 05:16:02;;;;;;;55.67;24.87;;;;;;;0.71;80.80;101640.16;5033178;28;20208;-81
2022/01/27 05:18:27;;;;;;;55.90;25.33;;;;;;;1.08;81.76;101730.59;5033281;28;20687;-83
2022/01/27 05:20:53;;;;;;;51.13;23.87;;;;;;;1.05;81.98;101736.81;5033410;28;20175;-81
2022/01/27 05:23:20;;;;;;;48.80;22.53;;;;;;;0.99;81.95;101725.81;5033378;28;20191;-81
2022/01/27 05:25:45;;;;;;;56.87;25.23;;;;;;;1.09;82.31;101766.84;5031501;28;20242;-80
2022/01/27 05:28:11;;;;;;;49.13;22.93;;;;;;;0.73;82.49;101705.28;5032925;28;20697;-80
2022/01/27 05:30:37;;;;;;;52.33;25.00;;;;;;;0.96;82.51;101728.81;5033722;28;20176;-78
2022/01/27 05:33:03;;;;;;;54.00;23.87;;;;;;;1.28;81.71;101772.97;5033793;28;20187;-79
2022/01/27 05:35:30;;;;;;;54.73;25.87;;;;;;;1.17;81.87;101752.81;5033888;28;20172;-80
2022/01/27 05:37:55;;;;;;;53.60;24.00;;;;;;;1.40;81.58;101774.72;5034125;28;20672;-79
2022/01/27 05:40:21;;;;;;;50.47;23.10;;;;;;;0.84;81.72;101684.13;5033829;28;20255;-79
2022/01/27 05:42:46;;;;;;;51.17;24.23;;;;;;;0.72;82.99;101682.34;5033931;28;20731;-78
2022/01/27 05:45:13;;;;;;;56.17;23.83;;;;;;;1.15;83.06;101732.38;5033771;28;20234;-79
2022/01/27 05:47:39;;;;;;;54.67;25.20;;;;;;;0.70;82.74;101659.44;5032261;28;20173;-81
2022/01/27 05:50:05;;;;;;;49.53;25.20;;;;;;;0.96;84.03;101728.81;5031950;28;20211;-81
2022/01/27 05:52:31;;;;;;;48.90;25.30;;;;;;;1.12;84.10;101768.22;5035114;28;20172;-79
2022/01/27 05:54:57;;;;;;;50.83;24.93;;;;;;;1.00;85.00;101756.34;5038534;28;20190;-80
2022/01/27 05:57:23;;;;;;;53.60;24.93;;;;;;;1.12;84.70;101762.22;5034268;28;20204;-81
2022/01/27 05:59:48;;;;;;;54.50;24.50;;;;;;;1.05;85.74;101773.06;5033537;28;20247;-79
2022/01/27 06:02:14;;;;;;;48.53;24.53;;;;;;;1.22;86.29;101777.13;5033649;28;20176;-81
2022/01/27 06:04:39;;;;;;;53.83;25.07;;;;;;;0.88;86.06;101717.63;5033574;28;20679;-80
2022/01/27 06:07:05;;;;;;;51.87;24.53;;;;;;;1.29;86.15;101772.28;5033576;28;20183;-79
2022/01/27 06:09:30;;;;;;;50.77;25.83;;;;;;;1.07;87.08;101726.25;5034241;28;20172;-77
2022/01/27 06:11:56;;;;;;;53.67;27.77;;;;;;;1.42;87.07;101772.44;5036980;28;20172;-79
2022/01/27 06:14:21;;;;;;;54.87;27.10;;;;;;;1.37;87.11;101756.59;5035360;28;20235;-80
2022/01/27 06:16:47;;;;;;;59.37;28.47;;;;;;;1.17;86.53;101702.34;5038567;28;20219;-80
2022/01/27 06:19:13;;;;;;;56.80;25.97;;;;;;;1.43;85.72;101733.84;5034437;28;20176;-80
2022/01/27 06:21:40;;;;;;;54.80;24.83;;;;;;;1.47;85.80;101741.19;5031829;28;20187;-79
2022/01/27 06:24:06;;;;;;;51.20;26.87;;;;;;;1.39;85.76;101714.81;5032904;28;20259;-80
2022/01/27 06:26:33;;;;;;;60.60;27.53;;;;;;;1.83;85.06;101778.34;5032796;28;20271;-78
2022/01/27 06:28:58;;;;;;;55.90;27.17;;;;;;;1.55;84.73;101728.94;5032771;28;20238;-79
2022/01/27 06:31:24;;;;;;;60.67;27.87;;;;;;;1.75;85.46;101773.84;5031467;28;20180;-80
2022/01/27 06:33:52;;;;;;;64.47;29.03;;;;;;;1.84;85.06;101773.53;5034768;28;20180;-79
2022/01/27 06:36:18;;;;;;;59.10;28.90;;;;;;;1.38;84.01;101662.50;5032594;28;20211;-81
2022/01/27 06:38:43;;;;;;;58.90;26.60;;;;;;;1.97;83.68;101755.97;5033075;28;20164;-79
2022/01/27 06:41:10;;;;;;;52.03;26.17;;;;;;;1.78;84.66;101734.75;5032858;28;20168;-80
2022/01/27 06:43:35;;;;;;;45.87;22.47;;;;;;;2.05;82.82;101750.38;5032536;28;20171;-79
2022/01/27 06:46:01;;;;;;;50.10;24.07;;;;;;;2.01;81.48;101745.59;5032714;28;20167;-82
2022/01/27 06:48:26;;;;;;;44.67;21.63;;;;;;;1.88;82.10;101749.59;5032853;28;20196;-80
2022/01/27 06:50:55;;;;;;;47.57;24.27;;;;;;;1.79;82.67;101748.31;5032525;28;20663;-80
2022/01/27 06:53:22;;;;;;;54.77;26.63;;;;;;;1.65;82.41;101722.66;5036169;28;20715;-81
2022/01/27 06:55:48;;;;;;;51.60;26.37;;;;;;;1.87;82.66;101745.25;5030944;28;20172;-80
2022/01/27 06:58:14;;;;;;;46.77;22.83;;;;;;;1.87;82.11;101731.69;5039209;28;20168;-81
2022/01/27 07:00:39;;;;;;;47.70;23.90;;;;;;;1.85;82.35;101751.69;5032917;28;20179;-81
2022/01/27 07:03:05;;;;;;;44.87;23.00;;;;;;;1.91;82.04;101755.09;5032284;28;20184;-80
2022/01/27 07:05:34;;;;;;;45.53;22.77;;;;;;;1.91;81.98;101736.50;5031245;28;20187;-80
2022/01/27 07:08:01;;;;;;;39.00;22.00;;;;;;;1.78;81.96;101729.69;5032680;28;20176;-81
2022/01/27 07:10:28;;;;;;;45.23;21.40;;;;;;;2.04;81.79;101748.53;5033621;28;20172;-81
2022/01/27 07:12:53;;;;;;;44.13;22.47;;;;;;;1.98;81.32;101736.66;5034177;28;20240;-80
2022/01/27 07:15:19;;;;;;;43.90;22.57;;;;;;;2.01;81.53;101753.16;5033231;28;20704;-79
2022/01/27 07:17:45;;;;;;;45.87;23.93;;;;;;;2.11;81.60;101747.78;5014880;28;20221;-80
2022/01/27 07:20:12;;;;;;;42.67;24.20;;;;;;;2.22;80.51;101760.34;5033130;28;20244;-80
2022/01/27 07:22:38;;;;;;;51.73;25.33;;;;;;;1.92;80.58;101688.69;5033298;28;20195;-82
2022/01/27 07:25:05;;;;;;;43.40;22.70;;;;;;;2.24;80.10;101735.25;5033010;28;20199;-80
2022/01/27 07:27:32;;;;;;;48.17;24.40;;;;;;;1.56;79.54;101619.63;5032834;28;20176;-81
2022/01/27 07:29:58;;;;;;;47.77;24.50;;;;;;;2.31;79.87;101749.00;5031993;28;20215;-80
2022/01/27 07:32:23;;;;;;;45.10;24.10;;;;;;;2.34;80.11;101740.94;5031946;28;20216;-81
2022/01/27 07:34:49;;;;;;;48.33;24.10;;;;;;;2.37;80.36;101743.91;5032255;28;20182;-82
2022/01/27 07:37:15;;;;;;;42.90;22.53;;;;;;;2.54;79.30;101747.13;5033642;28;20196;-81
2022/01/27 07:39:40;;;;;;;43.23;22.87;;;;;;;2.41;79.54;101738.56;5035743;28;20180;-80
2022/01/27 07:42:06;;;;;;;43.93;23.07;;;;;;;2.43;79.11;101742.22;5035227;28;20183;-82
2022/01/27 07:44:32;;;;;;;49.83;24.43;;;;;;;2.43;78.92;101726.09;5033468;28;20257;-81
2022/01/27 07:46:57;;;;;;;42.47;23.17;;;;;;;2.53;79.21;101732.69;5031288;28;20214;-81
2022/01/27 07:49:26;;;;;;;49.27;24.20;;;;;;;2.76;78.33;101757.72;5036304;28;20196;-81
2022/01/27 07:51:52;;;;;;;41.33;23.17;;;;;;;2.86;78.06;101755.75;5037127;28;20257;-81
2022/01/27 07:54:18;;;;;;;43.80;21.73;;;;;;;2.77;77.70;101731.69;5035071;28;20701;-81
2022/01/27 07:56:43;;;;;;;42.43;22.43;;;;;;;2.94;76.95;101746.69;5031467;28;20200;-81
2022/01/27 07:59:09;;;;;;;43.50;22.70;;;;;;;3.06;77.09;101760.16;5035333;28;20635;-83
2022/01/27 08:01:36;;;;;;;40.67;22.37;;;;;;;3.06;76.55;101758.53;5041673;28;20194;-79
2022/01/27 08:04:02;;;;;;;45.07;22.73;;;;;;;2.67;76.70;101694.09;5036584;28;20172;-83
2022/01/27 08:06:28;;;;;;;46.33;23.30;;;;;;;2.48;76.94;101644.19;5035216;28;20188;-82
2022/01/27 08:08:53;;;;;;;49.47;24.57;;;;;;;3.34;75.50;101752.16;5034704;28;20254;-81
2022/01/27 08:11:19;;;;;;;44.57;23.60;;;;;;;3.30;75.52;101748.28;5032542;28;20271;-81
2022/01/27 08:13:45;;;;;;;43.07;23.40;;;;;;;3.49;74.66;101777.06;5034184;28;20295;-81
2022/01/27 08:16:11;;;;;;;42.37;21.53;;;;;;;3.51;74.22;101770.56;5033702;28;20303;-81
2022/01/27 08:18:37;;;;;;;44.27;23.07;;;;;;;3.58;74.82;101777.38;5035268;28;20222;-81
2022/01/27 08:21:04;;;;;;;40.77;21.90;;;;;;;3.62;73.54;101774.59;5035817;28;20179;-83
2022/01/27 08:23:30;;;;;;;35.43;20.80;;;;;;;3.53;73.91;101769.16;5034595;28;20184;-80
2022/01/27 08:26:08;;;;;;;36.10;19.77;;;;;;;3.23;74.10;101733.88;5037099;28;20179;-82
2022/01/27 08:28:50;;;;;;;41.27;20.20;;;;;;;3.65;73.57;101778.44;5039206;28;20242;-81
2022/01/27 08:31:15;;;;;;;35.50;17.73;;;;;;;3.80;72.72;101774.53;5034811;28;20547;-82
2022/01/27 08:33:44;;;;;;;38.57;19.67;;;;;;;3.48;72.61;101717.84;5035152;28;20175;-82
2022/01/27 08:36:10;;;;;;;41.60;19.83;;;;;;;3.86;72.22;101792.16;5032553;28;20265;-82
2022/01/27 08:38:37;;;;;;;36.43;19.27;;;;;;;3.81;72.14;101796.63;5037025;28;20257;-82
2022/01/27 08:41:04;;;;;;;37.00;19.10;;;;;;;3.83;72.37;101791.75;5041253;28;20172;-82
2022/01/27 08:43:29;;;;;;;34.40;19.00;;;;;;;3.38;72.14;101697.03;5039704;28;20176;-83
2022/01/27 08:45:55;;;;;;;32.73;17.83;;;;;;;3.98;71.93;101773.53;5040224;28;20199;-80
2022/01/27 08:48:21;;;;;;;37.57;19.70;;;;;;;4.29;71.02;101788.69;5023979;28;20204;-82
2022/01/27 08:50:53;;;;;;;42.03;19.90;;;;;;;3.84;70.98;101695.63;5040071;28;20253;-84
2022/01/27 08:53:23;;;;;;;37.50;19.07;;;;;;;4.55;70.01;101791.28;5035588;28;20196;-82
2022/01/27 08:55:48;;;;;;;35.23;18.63;;;;;;;4.81;70.12;101794.69;5038343;28;20191;-83
2022/01/27 08:58:14;;;;;;;31.80;18.80;;;;;;;4.89;69.05;101798.22;5035439;28;20179;-83
2022/01/27 09:00:40;;;;;;;32.00;17.97;;;;;;;5.02;68.64;101799.16;5035511;28;20176;-81
2022/01/27 09:03:05;;;;;;;28.70;16.90;;;;;;;5.16;68.03;101793.31;5035516;28;20180;-81
2022/01/27 09:05:31;;;;;;;28.47;15.53;;;;;;;5.20;67.21;101798.06;5035614;28;20560;-84
2022/01/27 09:07:57;;;;;;;29.40;16.00;;;;;;;4.43;67.32;101675.44;5033830;28;20190;-82
2022/01/27 09:10:32;;;;;;;29.30;15.87;;;;;;;5.22;68.04;101789.03;5035097;28;20180;-82
2022/01/27 09:13:00;;;;;;;31.07;16.47;;;;;;;5.19;67.19;101746.34;5040582;28;20223;-80
2022/01/27 09:15:27;;;;;;;30.33;15.67;;;;;;;5.20;65.46;101742.16;5052447;28;20593;-82
2022/01/27 09:17:53;;;;;;;28.03;14.67;;;;;;;5.70;65.14;101789.34;5057110;28;20188;-82
2022/01/27 09:20:19;;;;;;;28.33;15.10;;;;;;;5.37;64.86;101737.63;5051960;28;20208;-81
2022/01/27 09:22:44;;;;;;;24.40;15.13;;;;;;;5.19;64.75;101713.31;5055224;28;20183;-82
2022/01/27 09:25:16;;;;;;;26.10;15.57;;;;;;;5.57;64.77;101784.31;5058706;28;20183;-83
2022/01/27 09:27:42;;;;;;;29.17;17.27;;;;;;;5.36;64.49;101756.16;5058553;28;20202;-83
2022/01/27 09:30:09;;;;;;;27.20;15.67;;;;;;;5.44;64.57;101767.28;5058480;28;20180;-82
2022/01/27 09:32:36;;;;;;;25.37;15.03;;;;;;;5.20;64.85;101748.19;5052935;28;20180;-81
2022/01/27 09:35:02;;;;;;;25.70;15.67;;;;;;;4.81;65.02;101714.34;5053790;28;20175;-82
2022/01/27 09:37:28;;;;;;;26.53;15.20;;;;;;;5.07;65.75;101773.59;5057141;28;20200;-82
2022/01/27 09:39:53;;;;;;;30.23;15.93;;;;;;;5.15;66.24;101774.63;5054613;28;20173;-81
2022/01/27 09:42:20;;;;;;;24.27;15.63;;;;;;;5.16;65.63;101773.88;5051323;28;20176;-82
2022/01/27 09:44:52;;;;;;;29.50;16.10;;;;;;;5.21;65.99;101772.88;5057678;28;20175;-82
2022/01/27 09:47:18;;;;;;;27.80;14.07;;;;;;;5.15;65.78;101754.28;5055833;28;20210;-81
2022/01/27 09:49:52;;;;;;;32.70;17.20;;;;;;;5.05;66.02;101724.25;5056728;28;20219;-81
2022/01/27 09:52:19;;;;;;;30.03;17.57;;;;;;;5.31;65.80;101752.09;5058714;28;20223;-82
2022/01/27 09:54:45;;;;;;;25.40;15.23;;;;;;;5.28;65.32;101752.59;5058999;28;20192;-81
2022/01/27 09:57:15;;;;;;;29.43;14.17;;;;;;;5.11;65.14;101716.50;5056441;28;20202;-81
2022/01/27 09:59:42;;;;;;;27.83;14.20;;;;;;;5.25;63.97;101708.09;5054414;28;20180;-82
2022/01/27 10:02:13;;;;;;;27.47;15.60;;;;;;;5.41;65.16;101733.84;5054953;28;20211;-82
2022/01/27 10:04:53;;;;;;;25.00;14.10;;;;;;;5.48;64.49;101727.22;5045640;28;20172;-83
2022/01/27 10:07:22;;;;;;;25.27;14.87;;;;;;;5.55;63.71;101708.56;5040990;28;20168;-83
2022/01/27 10:09:57;;;;;;;32.27;15.97;;;;;;;5.75;63.76;101722.16;5040006;28;20183;-82
2022/01/27 10:12:31;;;;;;;25.53;14.53;;;;;;;5.82;62.62;101693.31;5037052;28;20180;-82
2022/01/27 10:15:01;;;;;;;25.53;12.97;;;;;;;5.86;61.84;101680.28;5037938;28;20176;-82
2022/01/27 10:17:29;;;;;;;26.03;14.40;;;;;;;5.99;61.58;101693.84;5038604;28;20199;-81
2022/01/27 10:19:55;;;;;;;35.93;18.73;;;;;;;6.16;61.33;101688.31;5039079;28;20168;-82
2022/01/27 10:22:20;;;;;;;27.53;16.37;;;;;;;6.26;60.83;101703.09;5038660;28;20664;-82
2022/01/27 10:24:58;;;;;;;25.30;13.13;;;;;;;6.11;60.82;101663.94;5040595;28;20173;-83
2022/01/27 10:27:45;;;;;;;26.50;13.13;;;;;;;6.43;60.10;101708.66;5043450;28;20172;-81
2022/01/27 10:32:59;;;;;;;20.45;12.95;;;;;;;6.40;59.82;101699.72;5040918;28;20172;-80
2022/01/27 10:35:27;;;;;;;23.17;11.63;;;;;;;6.18;59.17;101656.34;5037803;28;20172;-84
2022/01/27 10:37:54;;;;;;;22.53;12.20;;;;;;;6.48;59.36;101699.97;5037168;28;20196;-82
2022/01/27 10:40:31;;;;;;;20.27;11.98;;;;;;;6.50;59.63;101692.50;5036266;28;20172;-83
2022/01/27 10:43:01;;;;;;;24.85;13.55;;;;;;;6.67;59.46;101682.75;5036919;28;20652;-82
2022/01/27 10:45:27;;;;;;;27.33;13.20;;;;;;;6.64;59.09;101668.75;5036919;28;20175;-81
2022/01/27 10:48:16;;;;;;;22.92;13.77;;;;;;;6.78;58.99;101671.31;5036199;28;20175;-82
2022/01/27 10:50:51;;;;;;;23.92;12.52;;;;;;;6.36;58.60;101588.06;5035028;28;20171;-81
2022/01/27 10:53:19;;;;;;;25.63;14.00;;;;;;;6.64;59.05;101622.91;5035871;28;20241;-83
2022/01/27 10:55:45;;;;;;;19.40;12.55;;;;;;;6.88;58.08;101655.50;5035827;28;20555;-83
2022/01/27 10:58:24;;;;;;;25.70;14.35;;;;;;;7.02;58.08;101668.28;5034727;28;20196;-82
2022/01/27 11:00:57;;;;;;;20.63;12.57;;;;;;;6.97;57.85;101654.06;5034377;28;20183;-82
2022/01/27 11:03:25;;;;;;;21.40;12.43;;;;;;;7.15;57.44;101663.03;5033802;28;20172;-83
2022/01/27 11:05:53;;;;;;;22.23;13.48;;;;;;;7.08;57.30;101655.38;5034850;28;20187;-82
2022/01/27 11:08:23;;;;;;;22.50;14.05;;;;;;;7.13;57.00;101652.66;5035460;28;20790;-83
2022/01/27 11:10:50;;;;;;;25.20;15.18;;;;;;;7.08;56.93;101651.19;5034060;28;20198;-81
2022/01/27 11:13:19;;;;;;;26.33;14.88;;;;;;;6.98;56.60;101634.59;5016526;28;20246;-83
2022/01/27 11:15:45;;;;;;;24.07;12.97;;;;;;;7.07;56.49;101648.44;5036401;28;20180;-83
2022/01/27 11:18:15;;;;;;;21.63;13.43;;;;;;;7.11;56.16;101637.91;5040384;28;20195;-82
2022/01/27 11:20:56;;;;;;;25.02;14.35;;;;;;;7.08;56.79;101635.00;5039523;28;20648;-82
2022/01/27 11:26:07;;;;;;;30.00;12.95;;;;;;;7.28;54.85;101614.41;5038085;28;20187;-83
2022/01/27 11:28:33;;;;;;;23.13;11.90;;;;;;;7.36;54.75;101629.00;5038924;28;20711;-83
2022/01/27 11:31:24;;;;;;;25.97;13.63;;;;;;;7.47;54.40;101617.50;5038518;28;20225;-81
2022/01/27 11:34:03;;;;;;;20.15;10.63;;;;;;;7.08;53.23;101527.97;5040782;28;20187;-81
2022/01/27 11:36:29;;;;;;;23.80;13.77;;;;;;;7.63;53.51;101626.22;5040379;28;20196;-81
2022/01/27 11:38:56;;;;;;;23.35;12.38;;;;;;;7.59;53.65;101589.25;5041163;28;20192;-81
2022/01/27 11:41:43;;;;;;;26.73;12.63;;;;;;;7.76;53.98;101609.09;5038433;28;20186;-82
2022/01/27 11:44:32;;;;;;;26.20;13.57;;;;;;;8.29;52.37;101608.41;5051793;28;20190;-81
2022/01/27 11:47:10;;;;;;;25.67;13.68;;;;;;;8.59;51.38;101594.78;5057726;28;20168;-81
2022/01/27 11:50:05;;;;;;;21.17;12.38;;;;;;;8.76;49.82;101590.84;5051987;28;20204;-82
2022/01/27 11:52:33;;;;;;;17.20;10.98;;;;;;;8.99;49.82;101593.41;5042648;28;20190;-79
2022/01/27 11:55:23;;;;;;;18.08;10.13;;;;;;;9.22;48.89;101593.44;5043455;28;20194;-82
2022/01/27 11:57:49;;;;;;;17.80;10.15;;;;;;;9.31;48.44;101587.50;5048920;28;20263;-81
2022/01/27 12:00:18;;;;;;;19.50;10.20;;;;;;;9.47;48.20;101570.56;5050449;28;20247;-80
2022/01/27 12:03:02;;;;;;;22.90;11.05;;;;;;;9.76;47.57;101588.16;5013163;28;20256;-82
2022/01/27 12:05:30;;;;;;;22.55;12.15;;;;;;;9.90;46.73;101531.69;5045790;28;20202;-82
2022/01/27 12:08:17;;;;;;;19.58;12.38;;;;;;;10.45;46.34;101564.88;5046049;28;20275;-81
2022/01/27 12:10:58;;;;;;;21.77;11.60;;;;;;;10.63;45.43;101566.81;5052869;28;20198;-80
2022/01/27 12:13:39;;;;;;;19.38;11.98;;;;;;;10.69;45.82;101558.84;5053367;28;20212;-79
2022/01/27 12:16:25;;;;;;;25.63;13.02;;;;;;;10.92;45.76;101567.25;5052682;28;20283;-81
2022/01/27 12:19:03;;;;;;;20.60;12.02;;;;;;;11.17;44.93;101564.66;5050911;28;20168;-82
2022/01/27 12:21:35;;;;;;;23.25;12.75;;;;;;;11.43;44.03;101564.75;5045358;28;20263;-82
2022/01/27 12:24:22;;;;;;;22.15;12.05;;;;;;;11.61;43.33;101561.50;5043948;28;20183;-81